sensor_id;sensor_type;location;lat;lon;timestamp;temperature;humidity
22838;DHT22;11585;51.450;-0.240;2022-08-05T00:02:08;22.10;99.90
22838;DHT22;11585;51.450;-0.240;2022-08-05T00:04:34;22.20;99.90
22838;DHT22;11585;51.450;-0.240;2022-08-05T00:07:00;22.10;99.90
22838;DHT22;11585;51.450;-0.240;2022-08-05T00:09:26;22.10;99.90
22838;DHT22;11585;51.450;-0.240;2022-08-05T00:11:52;22.10;99.90
22838;DHT22;11585;51.450;-0.240;2022-08-05T00:14:17;22.10;99.90
22838;DHT22;11585;51.450;-0.240;2022-08-05T00:16:44;22.10;99.90
22838;DHT22;11585;51.450;-0.240;2022-08-05T00:19:10;22.10;99.90
22838;DHT22;11585;51.450;-0.240;2022-08-05T00:21:36;22.00;99.90
22838;DHT22;11585;51.450;-0.240;2022-08-05T00:24:03;22.00;99.90
22838;DHT22;11585;51.450;-0.240;2022-08-05T00:26:29;22.00;99.90
22838;DHT22;11585;51.450;-0.240;2022-08-05T00:28:54;22.00;99.90
22838;DHT22;11585;51.450;-0.240;2022-08-05T00:31:20;22.00;99.90
22838;DHT22;11585;51.450;-0.240;2022-08-05T00:33:50;22.00;99.90
22838;DHT22;11585;51.450;-0.240;2022-08-05T00:36:16;22.00;99.90
22838;DHT22;11585;51.450;-0.240;2022-08-05T00:38:41;22.00;99.90
22838;DHT22;11585;51.450;-0.240;2022-08-05T00:41:11;21.90;99.90
22838;DHT22;11585;51.450;-0.240;2022-08-05T00:46:41;21.90;99.90
22838;DHT22;11585;51.450;-0.240;2022-08-05T00:49:06;21.90;99.90
22838;DHT22;11585;51.450;-0.240;2022-08-05T00:51:32;21.90;99.90
22838;DHT22;11585;51.450;-0.240;2022-08-05T00:54:18;21.90;99.90
22838;DHT22;11585;51.450;-0.240;2022-08-05T00:56:43;21.80;99.90
22838;DHT22;11585;51.450;-0.240;2022-08-05T00:59:09;21.80;99.90
22838;DHT22;11585;51.450;-0.240;2022-08-05T01:01:35;21.80;99.90
22838;DHT22;11585;51.450;-0.240;2022-08-05T01:07:22;21.80;99.90
22838;DHT22;11585;51.450;-0.240;2022-08-05T01:09:48;21.70;99.90
22838;DHT22;11585;51.450;-0.240;2022-08-05T01:12:16;21.70;99.90
22838;DHT22;11585;51.450;-0.240;2022-08-05T01:15:00;21.70;99.90
22838;DHT22;11585;51.450;-0.240;2022-08-05T01:26:02;21.60;99.90
22838;DHT22;11585;51.450;-0.240;2022-08-05T01:28:37;21.60;99.90
22838;DHT22;11585;51.450;-0.240;2022-08-05T01:34:11;21.60;99.90
22838;DHT22;11585;51.450;-0.240;2022-08-05T01:36:43;21.60;99.90
22838;DHT22;11585;51.450;-0.240;2022-08-05T01:39:11;21.50;99.90
22838;DHT22;11585;51.450;-0.240;2022-08-05T01:41:39;21.50;99.90
22838;DHT22;11585;51.450;-0.240;2022-08-05T01:44:09;21.40;99.90
22838;DHT22;11585;51.450;-0.240;2022-08-05T01:46:35;21.50;99.90
22838;DHT22;11585;51.450;-0.240;2022-08-05T01:49:02;21.40;99.90
22838;DHT22;11585;51.450;-0.240;2022-08-05T01:51:32;21.40;99.90
22838;DHT22;11585;51.450;-0.240;2022-08-05T01:54:04;21.40;99.90
22838;DHT22;11585;51.450;-0.240;2022-08-05T01:56:35;21.40;99.90
22838;DHT22;11585;51.450;-0.240;2022-08-05T01:59:06;21.40;99.90
22838;DHT22;11585;51.450;-0.240;2022-08-05T02:01:33;21.30;99.90
22838;DHT22;11585;51.450;-0.240;2022-08-05T02:04:02;21.30;99.90
22838;DHT22;11585;51.450;-0.240;2022-08-05T02:06:28;21.30;99.90
22838;DHT22;11585;51.450;-0.240;2022-08-05T02:08:55;21.30;99.90
22838;DHT22;11585;51.450;-0.240;2022-08-05T02:11:21;21.30;99.90
22838;DHT22;11585;51.450;-0.240;2022-08-05T02:14:08;21.30;99.90
22838;DHT22;11585;51.450;-0.240;2022-08-05T02:16:48;21.30;99.90
22838;DHT22;11585;51.450;-0.240;2022-08-05T02:22:00;21.20;99.90
22838;DHT22;11585;51.450;-0.240;2022-08-05T02:24:33;21.20;99.90
22838;DHT22;11585;51.450;-0.240;2022-08-05T02:27:02;21.20;99.90
22838;DHT22;11585;51.450;-0.240;2022-08-05T02:29:32;21.20;99.90
22838;DHT22;11585;51.450;-0.240;2022-08-05T02:31:59;21.20;99.90
22838;DHT22;11585;51.450;-0.240;2022-08-05T02:34:30;21.20;99.90
22838;DHT22;11585;51.450;-0.240;2022-08-05T02:37:00;21.10;99.90
22838;DHT22;11585;51.450;-0.240;2022-08-05T02:39:30;21.10;99.90
22838;DHT22;11585;51.450;-0.240;2022-08-05T02:42:00;21.10;99.90
22838;DHT22;11585;51.450;-0.240;2022-08-05T02:44:29;21.10;99.90
22838;DHT22;11585;51.450;-0.240;2022-08-05T02:46:55;21.10;99.90
22838;DHT22;11585;51.450;-0.240;2022-08-05T02:49:22;21.10;99.90
22838;DHT22;11585;51.450;-0.240;2022-08-05T02:51:49;21.00;99.90
22838;DHT22;11585;51.450;-0.240;2022-08-05T02:54:15;21.00;99.90
22838;DHT22;11585;51.450;-0.240;2022-08-05T02:56:42;21.00;99.90
22838;DHT22;11585;51.450;-0.240;2022-08-05T02:59:10;21.00;99.90
22838;DHT22;11585;51.450;-0.240;2022-08-05T03:01:36;21.00;99.90
22838;DHT22;11585;51.450;-0.240;2022-08-05T03:07:27;21.00;99.90
22838;DHT22;11585;51.450;-0.240;2022-08-05T03:13:16;20.90;99.90
22838;DHT22;11585;51.450;-0.240;2022-08-05T03:15:46;20.90;99.90
22838;DHT22;11585;51.450;-0.240;2022-08-05T03:18:12;20.90;99.90
22838;DHT22;11585;51.450;-0.240;2022-08-05T03:20:38;20.80;99.90
22838;DHT22;11585;51.450;-0.240;2022-08-05T03:26:08;20.80;99.90
22838;DHT22;11585;51.450;-0.240;2022-08-05T03:28:35;20.80;99.90
22838;DHT22;11585;51.450;-0.240;2022-08-05T03:31:02;20.80;99.90
22838;DHT22;11585;51.450;-0.240;2022-08-05T03:33:29;20.80;99.90
22838;DHT22;11585;51.450;-0.240;2022-08-05T03:35:57;20.70;99.90
22838;DHT22;11585;51.450;-0.240;2022-08-05T03:38:24;20.70;99.90
22838;DHT22;11585;51.450;-0.240;2022-08-05T03:40:50;20.70;99.90
22838;DHT22;11585;51.450;-0.240;2022-08-05T03:43:18;20.70;99.90
22838;DHT22;11585;51.450;-0.240;2022-08-05T03:45:47;20.70;99.90
22838;DHT22;11585;51.450;-0.240;2022-08-05T03:48:13;20.70;99.90
22838;DHT22;11585;51.450;-0.240;2022-08-05T03:53:31;20.70;99.90
22838;DHT22;11585;51.450;-0.240;2022-08-05T03:56:04;20.60;99.90
22838;DHT22;11585;51.450;-0.240;2022-08-05T03:58:34;20.60;99.90
22838;DHT22;11585;51.450;-0.240;2022-08-05T04:01:02;20.60;99.90
22838;DHT22;11585;51.450;-0.240;2022-08-05T04:06:51;20.60;99.90
22838;DHT22;11585;51.450;-0.240;2022-08-05T04:09:17;20.50;99.90
22838;DHT22;11585;51.450;-0.240;2022-08-05T04:11:44;20.50;99.90
22838;DHT22;11585;51.450;-0.240;2022-08-05T04:14:11;20.50;99.90
22838;DHT22;11585;51.450;-0.240;2022-08-05T04:16:37;20.50;99.90
22838;DHT22;11585;51.450;-0.240;2022-08-05T04:19:03;20.50;99.90
22838;DHT22;11585;51.450;-0.240;2022-08-05T04:21:29;20.40;99.90
22838;DHT22;11585;51.450;-0.240;2022-08-05T04:23:56;20.40;99.90
22838;DHT22;11585;51.450;-0.240;2022-08-05T04:26:23;20.40;99.90
22838;DHT22;11585;51.450;-0.240;2022-08-05T04:28:49;20.40;99.90
22838;DHT22;11585;51.450;-0.240;2022-08-05T04:31:15;20.40;99.90
22838;DHT22;11585;51.450;-0.240;2022-08-05T04:37:03;20.40;99.90
22838;DHT22;11585;51.450;-0.240;2022-08-05T04:39:29;20.40;99.90
22838;DHT22;11585;51.450;-0.240;2022-08-05T04:41:55;20.30;99.90
22838;DHT22;11585;51.450;-0.240;2022-08-05T04:44:21;20.30;99.90
22838;DHT22;11585;51.450;-0.240;2022-08-05T04:46:47;20.30;99.90
22838;DHT22;11585;51.450;-0.240;2022-08-05T04:49:13;20.30;99.90
22838;DHT22;11585;51.450;-0.240;2022-08-05T04:51:38;20.30;99.90
22838;DHT22;11585;51.450;-0.240;2022-08-05T04:54:04;20.30;99.90
22838;DHT22;11585;51.450;-0.240;2022-08-05T04:56:30;20.30;99.90
22838;DHT22;11585;51.450;-0.240;2022-08-05T04:58:56;20.20;99.90
22838;DHT22;11585;51.450;-0.240;2022-08-05T05:01:21;20.20;99.90
22838;DHT22;11585;51.450;-0.240;2022-08-05T05:03:51;20.20;99.90
22838;DHT22;11585;51.450;-0.240;2022-08-05T05:06:17;20.20;99.90
22838;DHT22;11585;51.450;-0.240;2022-08-05T05:08:44;20.20;99.90
22838;DHT22;11585;51.450;-0.240;2022-08-05T05:11:09;20.20;99.90
22838;DHT22;11585;51.450;-0.240;2022-08-05T05:17:17;20.20;99.90
22838;DHT22;11585;51.450;-0.240;2022-08-05T05:19:43;20.10;99.90
22838;DHT22;11585;51.450;-0.240;2022-08-05T05:22:10;20.10;99.90
22838;DHT22;11585;51.450;-0.240;2022-08-05T05:24:57;20.10;99.90
22838;DHT22;11585;51.450;-0.240;2022-08-05T05:27:23;20.10;99.90
22838;DHT22;11585;51.450;-0.240;2022-08-05T05:29:57;20.10;99.90
22838;DHT22;11585;51.450;-0.240;2022-08-05T05:32:23;20.10;99.90
22838;DHT22;11585;51.450;-0.240;2022-08-05T05:34:49;20.10;99.90
22838;DHT22;11585;51.450;-0.240;2022-08-05T05:37:15;20.10;99.90
22838;DHT22;11585;51.450;-0.240;2022-08-05T05:39:41;20.10;99.90
22838;DHT22;11585;51.450;-0.240;2022-08-05T05:42:06;20.00;99.90
22838;DHT22;11585;51.450;-0.240;2022-08-05T05:44:33;20.00;99.90
22838;DHT22;11585;51.450;-0.240;2022-08-05T05:46:59;20.00;99.90
22838;DHT22;11585;51.450;-0.240;2022-08-05T05:49:25;20.00;99.90
22838;DHT22;11585;51.450;-0.240;2022-08-05T05:51:52;20.00;99.90
22838;DHT22;11585;51.450;-0.240;2022-08-05T05:54:39;20.00;99.90
22838;DHT22;11585;51.450;-0.240;2022-08-05T05:57:04;20.00;99.90
22838;DHT22;11585;51.450;-0.240;2022-08-05T05:59:30;20.00;99.90
22838;DHT22;11585;51.450;-0.240;2022-08-05T06:01:55;19.90;99.90
22838;DHT22;11585;51.450;-0.240;2022-08-05T06:04:22;19.90;99.90
22838;DHT22;11585;51.450;-0.240;2022-08-05T06:06:48;20.00;99.90
22838;DHT22;11585;51.450;-0.240;2022-08-05T06:09:14;20.00;99.90
22838;DHT22;11585;51.450;-0.240;2022-08-05T06:11:39;20.00;99.90
22838;DHT22;11585;51.450;-0.240;2022-08-05T06:14:06;20.00;99.90
22838;DHT22;11585;51.450;-0.240;2022-08-05T06:16:32;20.00;99.90
22838;DHT22;11585;51.450;-0.240;2022-08-05T06:18:58;20.00;99.90
22838;DHT22;11585;51.450;-0.240;2022-08-05T06:21:24;20.00;99.90
22838;DHT22;11585;51.450;-0.240;2022-08-05T06:23:51;20.00;99.90
22838;DHT22;11585;51.450;-0.240;2022-08-05T06:26:17;20.00;99.90
22838;DHT22;11585;51.450;-0.240;2022-08-05T06:28:43;20.00;99.90
22838;DHT22;11585;51.450;-0.240;2022-08-05T06:31:08;19.90;99.90
22838;DHT22;11585;51.450;-0.240;2022-08-05T06:36:37;20.00;99.90
22838;DHT22;11585;51.450;-0.240;2022-08-05T06:39:03;20.00;99.90
22838;DHT22;11585;51.450;-0.240;2022-08-05T06:41:28;20.00;99.90
22838;DHT22;11585;51.450;-0.240;2022-08-05T06:46:58;20.00;99.90
22838;DHT22;11585;51.450;-0.240;2022-08-05T06:49:24;20.00;99.90
22838;DHT22;11585;51.450;-0.240;2022-08-05T06:51:51;20.00;99.90
22838;DHT22;11585;51.450;-0.240;2022-08-05T06:54:20;20.00;99.90
22838;DHT22;11585;51.450;-0.240;2022-08-05T06:56:45;20.00;99.90
22838;DHT22;11585;51.450;-0.240;2022-08-05T06:59:11;20.00;99.90
22838;DHT22;11585;51.450;-0.240;2022-08-05T07:01:39;20.00;99.90
22838;DHT22;11585;51.450;-0.240;2022-08-05T07:04:06;20.00;99.90
22838;DHT22;11585;51.450;-0.240;2022-08-05T07:06:32;20.00;99.90
22838;DHT22;11585;51.450;-0.240;2022-08-05T07:08:59;20.00;99.90
22838;DHT22;11585;51.450;-0.240;2022-08-05T07:11:25;20.10;99.90
22838;DHT22;11585;51.450;-0.240;2022-08-05T07:13:53;20.10;99.90
22838;DHT22;11585;51.450;-0.240;2022-08-05T07:16:37;20.10;99.90
22838;DHT22;11585;51.450;-0.240;2022-08-05T07:19:19;20.10;99.90
22838;DHT22;11585;51.450;-0.240;2022-08-05T07:21:49;20.10;99.90
22838;DHT22;11585;51.450;-0.240;2022-08-05T07:24:17;20.20;99.90
22838;DHT22;11585;51.450;-0.240;2022-08-05T07:26:43;20.20;99.90
22838;DHT22;11585;51.450;-0.240;2022-08-05T07:29:09;20.30;99.90
22838;DHT22;11585;51.450;-0.240;2022-08-05T07:31:35;20.40;99.90
22838;DHT22;11585;51.450;-0.240;2022-08-05T07:34:06;20.40;99.90
22838;DHT22;11585;51.450;-0.240;2022-08-05T07:36:32;20.50;99.90
22838;DHT22;11585;51.450;-0.240;2022-08-05T07:39:04;20.60;99.90
22838;DHT22;11585;51.450;-0.240;2022-08-05T07:41:30;20.60;99.90
22838;DHT22;11585;51.450;-0.240;2022-08-05T07:46:47;20.80;99.90
22838;DHT22;11585;51.450;-0.240;2022-08-05T07:49:13;20.90;99.90
22838;DHT22;11585;51.450;-0.240;2022-08-05T07:51:38;20.90;99.90
22838;DHT22;11585;51.450;-0.240;2022-08-05T07:54:25;21.00;99.90
22838;DHT22;11585;51.450;-0.240;2022-08-05T07:56:51;21.10;99.90
22838;DHT22;11585;51.450;-0.240;2022-08-05T07:59:17;21.10;99.90
22838;DHT22;11585;51.450;-0.240;2022-08-05T08:01:46;21.10;99.90
22838;DHT22;11585;51.450;-0.240;2022-08-05T08:04:31;21.20;99.90
22838;DHT22;11585;51.450;-0.240;2022-08-05T08:06:57;21.30;99.90
22838;DHT22;11585;51.450;-0.240;2022-08-05T08:09:25;21.30;99.90
22838;DHT22;11585;51.450;-0.240;2022-08-05T08:11:51;21.30;99.90
22838;DHT22;11585;51.450;-0.240;2022-08-05T08:14:17;21.40;99.90
22838;DHT22;11585;51.450;-0.240;2022-08-05T08:16:43;21.50;99.90
22838;DHT22;11585;51.450;-0.240;2022-08-05T08:19:08;21.50;99.90
22838;DHT22;11585;51.450;-0.240;2022-08-05T08:21:35;21.60;99.90
22838;DHT22;11585;51.450;-0.240;2022-08-05T08:24:01;21.60;99.90
22838;DHT22;11585;51.450;-0.240;2022-08-05T08:26:26;21.60;99.90
22838;DHT22;11585;51.450;-0.240;2022-08-05T08:28:52;21.70;99.90
22838;DHT22;11585;51.450;-0.240;2022-08-05T08:31:18;21.80;99.90
22838;DHT22;11585;51.450;-0.240;2022-08-05T08:33:45;21.80;99.90
22838;DHT22;11585;51.450;-0.240;2022-08-05T08:36:10;21.90;99.90
22838;DHT22;11585;51.450;-0.240;2022-08-05T08:38:36;21.90;99.90
22838;DHT22;11585;51.450;-0.240;2022-08-05T08:41:06;21.90;99.90
22838;DHT22;11585;51.450;-0.240;2022-08-05T08:43:54;21.90;99.90
22838;DHT22;11585;51.450;-0.240;2022-08-05T08:46:24;22.00;99.90
22838;DHT22;11585;51.450;-0.240;2022-08-05T08:48:53;22.00;99.90
22838;DHT22;11585;51.450;-0.240;2022-08-05T08:51:19;22.00;99.90
22838;DHT22;11585;51.450;-0.240;2022-08-05T08:53:46;22.00;99.90
22838;DHT22;11585;51.450;-0.240;2022-08-05T08:56:13;22.10;99.90
22838;DHT22;11585;51.450;-0.240;2022-08-05T08:58:40;22.10;99.90
22838;DHT22;11585;51.450;-0.240;2022-08-05T09:01:07;22.10;99.90
22838;DHT22;11585;51.450;-0.240;2022-08-05T09:03:34;22.10;99.90
22838;DHT22;11585;51.450;-0.240;2022-08-05T09:06:00;22.20;99.90
22838;DHT22;11585;51.450;-0.240;2022-08-05T09:08:26;22.20;99.90
22838;DHT22;11585;51.450;-0.240;2022-08-05T09:10:52;22.20;99.90
22838;DHT22;11585;51.450;-0.240;2022-08-05T09:13:18;22.20;99.90
22838;DHT22;11585;51.450;-0.240;2022-08-05T09:15:45;22.30;99.90
22838;DHT22;11585;51.450;-0.240;2022-08-05T09:18:11;22.30;99.90
22838;DHT22;11585;51.450;-0.240;2022-08-05T09:20:37;22.30;99.90
22838;DHT22;11585;51.450;-0.240;2022-08-05T09:23:11;22.30;99.90
22838;DHT22;11585;51.450;-0.240;2022-08-05T09:25:43;22.40;99.90
22838;DHT22;11585;51.450;-0.240;2022-08-05T09:30:42;22.40;99.90
22838;DHT22;11585;51.450;-0.240;2022-08-05T09:33:09;22.40;99.90
22838;DHT22;11585;51.450;-0.240;2022-08-05T09:35:34;22.40;99.90
22838;DHT22;11585;51.450;-0.240;2022-08-05T09:38:00;22.40;99.90
22838;DHT22;11585;51.450;-0.240;2022-08-05T09:40:37;22.50;99.90
22838;DHT22;11585;51.450;-0.240;2022-08-05T09:43:07;22.50;99.90
22838;DHT22;11585;51.450;-0.240;2022-08-05T09:45:41;22.50;99.90
22838;DHT22;11585;51.450;-0.240;2022-08-05T09:48:25;22.50;99.90
22838;DHT22;11585;51.450;-0.240;2022-08-05T09:50:54;22.50;99.90
22838;DHT22;11585;51.450;-0.240;2022-08-05T09:53:22;22.50;99.90
22838;DHT22;11585;51.450;-0.240;2022-08-05T09:55:56;22.40;99.90
22838;DHT22;11585;51.450;-0.240;2022-08-05T09:58:23;22.40;99.90
22838;DHT22;11585;51.450;-0.240;2022-08-05T10:01:05;22.40;99.90
22838;DHT22;11585;51.450;-0.240;2022-08-05T10:03:31;22.40;99.90
22838;DHT22;11585;51.450;-0.240;2022-08-05T10:06:06;22.40;99.90
22838;DHT22;11585;51.450;-0.240;2022-08-05T10:08:33;22.50;99.90
22838;DHT22;11585;51.450;-0.240;2022-08-05T10:11:01;22.40;99.90
22838;DHT22;11585;51.450;-0.240;2022-08-05T10:13:33;22.50;99.90
22838;DHT22;11585;51.450;-0.240;2022-08-05T10:16:01;22.50;99.90
22838;DHT22;11585;51.450;-0.240;2022-08-05T10:18:27;22.50;99.90
22838;DHT22;11585;51.450;-0.240;2022-08-05T10:21:05;22.50;99.90
22838;DHT22;11585;51.450;-0.240;2022-08-05T10:23:37;22.50;99.90
22838;DHT22;11585;51.450;-0.240;2022-08-05T10:26:05;22.50;99.90
22838;DHT22;11585;51.450;-0.240;2022-08-05T10:28:34;22.90;99.90
22838;DHT22;11585;51.450;-0.240;2022-08-05T10:31:01;22.50;99.90
22838;DHT22;11585;51.450;-0.240;2022-08-05T10:33:45;22.50;99.90
22838;DHT22;11585;51.450;-0.240;2022-08-05T10:36:12;22.60;99.90
22838;DHT22;11585;51.450;-0.240;2022-08-05T10:38:39;22.50;99.90
22838;DHT22;11585;51.450;-0.240;2022-08-05T10:41:26;22.50;99.90
22838;DHT22;11585;51.450;-0.240;2022-08-05T10:46:45;22.60;99.90
22838;DHT22;11585;51.450;-0.240;2022-08-05T10:49:14;22.60;99.90
22838;DHT22;11585;51.450;-0.240;2022-08-05T10:51:54;22.60;99.90
22838;DHT22;11585;51.450;-0.240;2022-08-05T10:54:24;22.60;99.90
22838;DHT22;11585;51.450;-0.240;2022-08-05T10:57:11;22.50;99.90
22838;DHT22;11585;51.450;-0.240;2022-08-05T10:59:37;22.60;99.90
22838;DHT22;11585;51.450;-0.240;2022-08-05T11:02:08;22.60;99.90
22838;DHT22;11585;51.450;-0.240;2022-08-05T11:04:45;22.60;99.90
22838;DHT22;11585;51.450;-0.240;2022-08-05T11:07:11;22.60;99.90
22838;DHT22;11585;51.450;-0.240;2022-08-05T11:09:50;22.60;99.90
22838;DHT22;11585;51.450;-0.240;2022-08-05T11:17:38;22.60;99.90
22838;DHT22;11585;51.450;-0.240;2022-08-05T11:20:06;22.60;99.90
22838;DHT22;11585;51.450;-0.240;2022-08-05T11:22:46;22.60;99.90
22838;DHT22;11585;51.450;-0.240;2022-08-05T11:36:10;22.70;99.90
22838;DHT22;11585;51.450;-0.240;2022-08-05T11:41:24;22.70;99.90
22838;DHT22;11585;51.450;-0.240;2022-08-05T11:43:56;22.80;99.90
22838;DHT22;11585;51.450;-0.240;2022-08-05T11:46:49;22.80;99.90
22838;DHT22;11585;51.450;-0.240;2022-08-05T11:49:17;22.80;99.90
22838;DHT22;11585;51.450;-0.240;2022-08-05T11:51:48;22.80;99.90
22838;DHT22;11585;51.450;-0.240;2022-08-05T11:54:21;22.90;99.90
22838;DHT22;11585;51.450;-0.240;2022-08-05T11:56:53;22.90;99.90
22838;DHT22;11585;51.450;-0.240;2022-08-05T11:59:21;22.90;99.90
22838;DHT22;11585;51.450;-0.240;2022-08-05T12:04:40;23.00;99.90
22838;DHT22;11585;51.450;-0.240;2022-08-05T12:07:14;23.10;99.90
22838;DHT22;11585;51.450;-0.240;2022-08-05T12:09:48;23.00;99.90
22838;DHT22;11585;51.450;-0.240;2022-08-05T12:12:24;23.10;99.90
22838;DHT22;11585;51.450;-0.240;2022-08-05T12:14:52;23.10;99.90
22838;DHT22;11585;51.450;-0.240;2022-08-05T12:17:17;23.20;99.90
22838;DHT22;11585;51.450;-0.240;2022-08-05T12:19:52;23.20;99.90
22838;DHT22;11585;51.450;-0.240;2022-08-05T12:22:20;23.20;99.90
22838;DHT22;11585;51.450;-0.240;2022-08-05T12:24:48;23.20;99.90
22838;DHT22;11585;51.450;-0.240;2022-08-05T12:27:23;23.30;99.90
22838;DHT22;11585;51.450;-0.240;2022-08-05T12:30:10;23.30;99.90
22838;DHT22;11585;51.450;-0.240;2022-08-05T12:32:47;23.40;99.90
22838;DHT22;11585;51.450;-0.240;2022-08-05T12:35:18;23.40;99.90
22838;DHT22;11585;51.450;-0.240;2022-08-05T12:37:46;23.40;99.90
22838;DHT22;11585;51.450;-0.240;2022-08-05T12:40:12;23.40;99.90
22838;DHT22;11585;51.450;-0.240;2022-08-05T12:42:40;23.50;99.90
22838;DHT22;11585;51.450;-0.240;2022-08-05T12:45:07;23.50;99.90
22838;DHT22;11585;51.450;-0.240;2022-08-05T12:47:34;23.50;99.90
22838;DHT22;11585;51.450;-0.240;2022-08-05T12:50:10;23.50;99.90
22838;DHT22;11585;51.450;-0.240;2022-08-05T12:52:36;23.50;99.90
22838;DHT22;11585;51.450;-0.240;2022-08-05T12:55:16;23.50;99.90
22838;DHT22;11585;51.450;-0.240;2022-08-05T12:57:42;23.60;99.90
22838;DHT22;11585;51.450;-0.240;2022-08-05T13:00:19;23.60;99.90
22838;DHT22;11585;51.450;-0.240;2022-08-05T13:02:46;23.60;99.90
22838;DHT22;11585;51.450;-0.240;2022-08-05T13:05:11;23.60;99.90
22838;DHT22;11585;51.450;-0.240;2022-08-05T13:07:39;23.60;99.90
22838;DHT22;11585;51.450;-0.240;2022-08-05T13:10:10;23.70;99.90
22838;DHT22;11585;51.450;-0.240;2022-08-05T13:12:40;23.70;99.90
22838;DHT22;11585;51.450;-0.240;2022-08-05T13:15:10;23.70;99.90
22838;DHT22;11585;51.450;-0.240;2022-08-05T13:17:35;23.70;99.90
22838;DHT22;11585;51.450;-0.240;2022-08-05T13:20:15;23.70;99.90
22838;DHT22;11585;51.450;-0.240;2022-08-05T13:22:47;23.70;99.90
22838;DHT22;11585;51.450;-0.240;2022-08-05T13:25:15;23.70;99.90
22838;DHT22;11585;51.450;-0.240;2022-08-05T13:27:46;23.70;99.90
22838;DHT22;11585;51.450;-0.240;2022-08-05T13:30:14;23.70;99.90
22838;DHT22;11585;51.450;-0.240;2022-08-05T13:32:40;23.70;99.90
22838;DHT22;11585;51.450;-0.240;2022-08-05T13:35:07;23.70;99.90
22838;DHT22;11585;51.450;-0.240;2022-08-05T13:37:34;23.80;99.90
22838;DHT22;11585;51.450;-0.240;2022-08-05T13:39:59;23.70;99.90
22838;DHT22;11585;51.450;-0.240;2022-08-05T13:42:25;23.80;99.90
22838;DHT22;11585;51.450;-0.240;2022-08-05T13:44:54;23.80;99.90
22838;DHT22;11585;51.450;-0.240;2022-08-05T13:47:21;23.80;99.90
22838;DHT22;11585;51.450;-0.240;2022-08-05T13:49:47;23.90;99.90
22838;DHT22;11585;51.450;-0.240;2022-08-05T13:52:18;23.80;99.90
22838;DHT22;11585;51.450;-0.240;2022-08-05T13:54:46;23.80;99.90
22838;DHT22;11585;51.450;-0.240;2022-08-05T13:57:12;23.90;99.90
22838;DHT22;11585;51.450;-0.240;2022-08-05T13:59:39;23.90;99.90
22838;DHT22;11585;51.450;-0.240;2022-08-05T14:02:07;23.90;99.90
22838;DHT22;11585;51.450;-0.240;2022-08-05T14:04:33;23.90;99.90
22838;DHT22;11585;51.450;-0.240;2022-08-05T14:07:26;23.90;99.90
22838;DHT22;11585;51.450;-0.240;2022-08-05T14:09:52;24.00;99.90
22838;DHT22;11585;51.450;-0.240;2022-08-05T14:12:18;24.00;99.90
22838;DHT22;11585;51.450;-0.240;2022-08-05T14:14:44;24.00;99.90
22838;DHT22;11585;51.450;-0.240;2022-08-05T14:17:09;24.10;99.90
22838;DHT22;11585;51.450;-0.240;2022-08-05T14:19:35;24.10;99.90
22838;DHT22;11585;51.450;-0.240;2022-08-05T14:22:01;24.20;99.90
22838;DHT22;11585;51.450;-0.240;2022-08-05T14:24:26;24.20;99.90
22838;DHT22;11585;51.450;-0.240;2022-08-05T14:26:52;24.20;99.90
22838;DHT22;11585;51.450;-0.240;2022-08-05T14:29:18;24.20;99.90
22838;DHT22;11585;51.450;-0.240;2022-08-05T14:31:44;24.30;99.90
22838;DHT22;11585;51.450;-0.240;2022-08-05T14:34:10;24.30;99.90
22838;DHT22;11585;51.450;-0.240;2022-08-05T14:36:35;24.30;99.90
22838;DHT22;11585;51.450;-0.240;2022-08-05T14:39:01;24.30;99.90
22838;DHT22;11585;51.450;-0.240;2022-08-05T14:41:27;24.30;99.90
22838;DHT22;11585;51.450;-0.240;2022-08-05T14:43:53;24.40;99.90
22838;DHT22;11585;51.450;-0.240;2022-08-05T14:46:21;24.30;99.90
22838;DHT22;11585;51.450;-0.240;2022-08-05T14:48:46;24.40;99.90
22838;DHT22;11585;51.450;-0.240;2022-08-05T14:51:12;24.40;99.90
22838;DHT22;11585;51.450;-0.240;2022-08-05T14:53:38;24.40;99.90
22838;DHT22;11585;51.450;-0.240;2022-08-05T14:56:04;24.40;99.90
22838;DHT22;11585;51.450;-0.240;2022-08-05T14:58:29;24.40;99.90
22838;DHT22;11585;51.450;-0.240;2022-08-05T15:00:55;24.40;99.90
22838;DHT22;11585;51.450;-0.240;2022-08-05T15:03:21;24.50;99.90
22838;DHT22;11585;51.450;-0.240;2022-08-05T15:05:46;24.50;99.90
22838;DHT22;11585;51.450;-0.240;2022-08-05T15:08:12;24.50;99.90
22838;DHT22;11585;51.450;-0.240;2022-08-05T15:10:37;24.50;99.90
22838;DHT22;11585;51.450;-0.240;2022-08-05T15:13:05;24.50;99.90
22838;DHT22;11585;51.450;-0.240;2022-08-05T15:15:31;24.50;99.90
22838;DHT22;11585;51.450;-0.240;2022-08-05T15:17:57;24.50;99.90
22838;DHT22;11585;51.450;-0.240;2022-08-05T15:20:22;24.50;99.90
22838;DHT22;11585;51.450;-0.240;2022-08-05T15:22:50;24.50;99.90
22838;DHT22;11585;51.450;-0.240;2022-08-05T15:25:16;24.50;99.90
22838;DHT22;11585;51.450;-0.240;2022-08-05T15:27:41;24.50;99.90
22838;DHT22;11585;51.450;-0.240;2022-08-05T15:30:08;24.50;99.90
22838;DHT22;11585;51.450;-0.240;2022-08-05T15:32:35;24.50;99.90
22838;DHT22;11585;51.450;-0.240;2022-08-05T15:35:01;24.50;99.90
22838;DHT22;11585;51.450;-0.240;2022-08-05T15:37:26;24.50;99.90
22838;DHT22;11585;51.450;-0.240;2022-08-05T15:39:52;24.50;99.90
22838;DHT22;11585;51.450;-0.240;2022-08-05T15:42:22;24.50;99.90
22838;DHT22;11585;51.450;-0.240;2022-08-05T15:44:48;24.40;99.90
22838;DHT22;11585;51.450;-0.240;2022-08-05T15:47:14;24.40;99.90
22838;DHT22;11585;51.450;-0.240;2022-08-05T15:49:40;24.40;99.90
22838;DHT22;11585;51.450;-0.240;2022-08-05T15:52:06;24.40;99.90
22838;DHT22;11585;51.450;-0.240;2022-08-05T15:54:32;24.40;99.90
22838;DHT22;11585;51.450;-0.240;2022-08-05T15:56:58;24.40;99.90
22838;DHT22;11585;51.450;-0.240;2022-08-05T15:59:24;24.40;99.90
22838;DHT22;11585;51.450;-0.240;2022-08-05T16:01:50;24.40;99.90
22838;DHT22;11585;51.450;-0.240;2022-08-05T16:04:16;24.40;99.90
22838;DHT22;11585;51.450;-0.240;2022-08-05T16:06:42;24.40;99.90
22838;DHT22;11585;51.450;-0.240;2022-08-05T16:09:08;24.40;99.90
22838;DHT22;11585;51.450;-0.240;2022-08-05T16:11:35;24.40;99.90
22838;DHT22;11585;51.450;-0.240;2022-08-05T16:14:02;24.40;99.90
22838;DHT22;11585;51.450;-0.240;2022-08-05T16:16:27;24.40;99.90
22838;DHT22;11585;51.450;-0.240;2022-08-05T16:18:54;24.40;99.90
22838;DHT22;11585;51.450;-0.240;2022-08-05T16:21:20;24.40;99.90
22838;DHT22;11585;51.450;-0.240;2022-08-05T16:23:45;24.40;99.90
22838;DHT22;11585;51.450;-0.240;2022-08-05T16:26:11;24.40;99.90
22838;DHT22;11585;51.450;-0.240;2022-08-05T16:28:41;24.40;99.90
22838;DHT22;11585;51.450;-0.240;2022-08-05T16:31:06;24.40;99.90
22838;DHT22;11585;51.450;-0.240;2022-08-05T16:33:32;24.40;99.90
22838;DHT22;11585;51.450;-0.240;2022-08-05T16:36:04;24.20;99.90
22838;DHT22;11585;51.450;-0.240;2022-08-05T16:38:30;24.50;99.90
22838;DHT22;11585;51.450;-0.240;2022-08-05T16:40:58;24.50;99.90
22838;DHT22;11585;51.450;-0.240;2022-08-05T16:43:25;24.50;99.90